Weather at Egal International Airport

Public forecast

Using degrees Celsius for public forecast. Weather courtesy of forecast.io.

Closest aviation weather report (METAR) to Egal International Airport

Closest report is Addis Ababa Bole International Airport, 314.7 nm (582.9 km) W.

2023/01/30 00:00 (retrieved 1 hour ago)

HAAB 300000Z 09004KT 9999 FEW025 14/06 Q1024 NOSIG

Closest aviation forecast (TAF) to Egal International Airport

Forecast is more than 6 hours old.

Closest forecast is Wilwal International Airport, 70.2 nm (129.9 km) W.

2023/01/29 18:20 (retrieved 7 hours ago)

TAF HAJJ 291530Z 2918/3024 27009KT 9999 FEW030 FEW090